sensor_id;sensor_type;location;lat;lon;timestamp;P1;durP1;ratioP1;P2;durP2;ratioP2
45420;SDS011;55462;47.042;8.292;2024-03-07T00:00:34;6.50;;;6.00;;
45420;SDS011;55462;47.042;8.292;2024-03-07T00:02:59;6.93;;;6.33;;
45420;SDS011;55462;47.042;8.292;2024-03-07T00:05:25;7.03;;;6.43;;
45420;SDS011;55462;47.042;8.292;2024-03-07T00:07:51;6.93;;;6.33;;
45420;SDS011;55462;47.042;8.292;2024-03-07T00:10:17;6.17;;;5.67;;
45420;SDS011;55462;47.042;8.292;2024-03-07T00:12:43;6.30;;;5.80;;
45420;SDS011;55462;47.042;8.292;2024-03-07T00:15:12;6.63;;;5.30;;
45420;SDS011;55462;47.042;8.292;2024-03-07T00:17:38;5.20;;;4.80;;
45420;SDS011;55462;47.042;8.292;2024-03-07T00:20:03;5.07;;;4.77;;
45420;SDS011;55462;47.042;8.292;2024-03-07T00:22:33;5.67;;;5.27;;
45420;SDS011;55462;47.042;8.292;2024-03-07T00:24:58;5.30;;;4.90;;
45420;SDS011;55462;47.042;8.292;2024-03-07T00:27:24;5.87;;;5.37;;
45420;SDS011;55462;47.042;8.292;2024-03-07T00:29:51;6.00;;;5.50;;
45420;SDS011;55462;47.042;8.292;2024-03-07T00:32:20;6.33;;;5.83;;
45420;SDS011;55462;47.042;8.292;2024-03-07T00:34:45;5.83;;;5.33;;
45420;SDS011;55462;47.042;8.292;2024-03-07T00:37:11;6.23;;;5.73;;
45420;SDS011;55462;47.042;8.292;2024-03-07T00:39:36;6.43;;;5.93;;
45420;SDS011;55462;47.042;8.292;2024-03-07T00:42:01;6.23;;;5.73;;
45420;SDS011;55462;47.042;8.292;2024-03-07T00:44:27;6.10;;;5.63;;
45420;SDS011;55462;47.042;8.292;2024-03-07T00:46:52;7.00;;;6.40;;
45420;SDS011;55462;47.042;8.292;2024-03-07T00:49:17;6.47;;;5.97;;
45420;SDS011;55462;47.042;8.292;2024-03-07T00:51:43;6.27;;;5.77;;
45420;SDS011;55462;47.042;8.292;2024-03-07T00:54:09;7.03;;;6.43;;
45420;SDS011;55462;47.042;8.292;2024-03-07T00:56:37;7.83;;;7.13;;
45420;SDS011;55462;47.042;8.292;2024-03-07T00:59:03;7.00;;;6.40;;
45420;SDS011;55462;47.042;8.292;2024-03-07T01:01:28;7.73;;;7.03;;
45420;SDS011;55462;47.042;8.292;2024-03-07T01:03:54;7.47;;;6.87;;
45420;SDS011;55462;47.042;8.292;2024-03-07T01:06:19;7.70;;;7.00;;
45420;SDS011;55462;47.042;8.292;2024-03-07T01:08:45;7.93;;;7.23;;
45420;SDS011;55462;47.042;8.292;2024-03-07T01:11:10;7.17;;;6.57;;
45420;SDS011;55462;47.042;8.292;2024-03-07T01:13:37;7.27;;;6.67;;
45420;SDS011;55462;47.042;8.292;2024-03-07T01:16:03;6.17;;;5.67;;
45420;SDS011;55462;47.042;8.292;2024-03-07T01:18:28;6.67;;;6.07;;
45420;SDS011;55462;47.042;8.292;2024-03-07T01:20:54;6.97;;;6.47;;
45420;SDS011;55462;47.042;8.292;2024-03-07T01:23:19;6.90;;;6.33;;
45420;SDS011;55462;47.042;8.292;2024-03-07T01:25:45;6.73;;;6.20;;
45420;SDS011;55462;47.042;8.292;2024-03-07T01:28:10;7.30;;;6.70;;
45420;SDS011;55462;47.042;8.292;2024-03-07T01:30:38;7.77;;;7.17;;
45420;SDS011;55462;47.042;8.292;2024-03-07T01:33:04;8.27;;;7.57;;
45420;SDS011;55462;47.042;8.292;2024-03-07T01:35:29;8.47;;;7.67;;
45420;SDS011;55462;47.042;8.292;2024-03-07T01:37:54;10.20;;;9.30;;
45420;SDS011;55462;47.042;8.292;2024-03-07T01:40:20;10.33;;;9.43;;
45420;SDS011;55462;47.042;8.292;2024-03-07T01:42:47;10.83;;;9.83;;
45420;SDS011;55462;47.042;8.292;2024-03-07T01:45:13;10.43;;;9.53;;
45420;SDS011;55462;47.042;8.292;2024-03-07T01:47:38;10.17;;;9.27;;
45420;SDS011;55462;47.042;8.292;2024-03-07T01:50:04;11.27;;;10.30;;
45420;SDS011;55462;47.042;8.292;2024-03-07T01:52:30;10.43;;;9.43;;
45420;SDS011;55462;47.042;8.292;2024-03-07T01:54:55;10.50;;;9.50;;
45420;SDS011;55462;47.042;8.292;2024-03-07T01:57:21;12.17;;;11.07;;
45420;SDS011;55462;47.042;8.292;2024-03-07T01:59:47;10.80;;;9.80;;
45420;SDS011;55462;47.042;8.292;2024-03-07T02:02:12;10.47;;;9.57;;
45420;SDS011;55462;47.042;8.292;2024-03-07T02:04:37;10.50;;;9.60;;
45420;SDS011;55462;47.042;8.292;2024-03-07T02:07:03;10.43;;;9.53;;
45420;SDS011;55462;47.042;8.292;2024-03-07T02:09:28;12.17;;;10.97;;
45420;SDS011;55462;47.042;8.292;2024-03-07T02:11:53;11.50;;;10.50;;
45420;SDS011;55462;47.042;8.292;2024-03-07T02:14:19;12.27;;;11.13;;
45420;SDS011;55462;47.042;8.292;2024-03-07T02:16:44;11.30;;;10.17;;
45420;SDS011;55462;47.042;8.292;2024-03-07T02:19:14;11.43;;;10.43;;
45420;SDS011;55462;47.042;8.292;2024-03-07T02:21:39;10.87;;;9.83;;
45420;SDS011;55462;47.042;8.292;2024-03-07T02:24:05;12.33;;;10.63;;
45420;SDS011;55462;47.042;8.292;2024-03-07T02:26:30;11.73;;;10.70;;
45420;SDS011;55462;47.042;8.292;2024-03-07T02:28:56;11.00;;;10.00;;
45420;SDS011;55462;47.042;8.292;2024-03-07T02:31:21;13.73;;;12.23;;
45420;SDS011;55462;47.042;8.292;2024-03-07T02:33:59;14.17;;;12.70;;
45420;SDS011;55462;47.042;8.292;2024-03-07T02:36:24;14.10;;;12.67;;
45420;SDS011;55462;47.042;8.292;2024-03-07T02:38:50;14.67;;;13.20;;
45420;SDS011;55462;47.042;8.292;2024-03-07T02:41:15;16.83;;;13.73;;
45420;SDS011;55462;47.042;8.292;2024-03-07T02:43:40;11.93;;;10.83;;
45420;SDS011;55462;47.042;8.292;2024-03-07T02:46:05;13.37;;;12.03;;
45420;SDS011;55462;47.042;8.292;2024-03-07T02:48:31;13.10;;;11.80;;
45420;SDS011;55462;47.042;8.292;2024-03-07T02:50:56;15.93;;;14.23;;
45420;SDS011;55462;47.042;8.292;2024-03-07T02:53:22;13.73;;;12.40;;
45420;SDS011;55462;47.042;8.292;2024-03-07T02:55:47;13.97;;;12.57;;
45420;SDS011;55462;47.042;8.292;2024-03-07T02:58:12;12.97;;;11.77;;
45420;SDS011;55462;47.042;8.292;2024-03-07T03:00:37;12.83;;;11.67;;
45420;SDS011;55462;47.042;8.292;2024-03-07T03:03:03;11.57;;;10.53;;
45420;SDS011;55462;47.042;8.292;2024-03-07T03:05:28;12.03;;;10.93;;
45420;SDS011;55462;47.042;8.292;2024-03-07T03:07:54;11.73;;;10.63;;
45420;SDS011;55462;47.042;8.292;2024-03-07T03:10:24;11.80;;;10.70;;
45420;SDS011;55462;47.042;8.292;2024-03-07T03:13:00;11.77;;;10.67;;
45420;SDS011;55462;47.042;8.292;2024-03-07T03:15:26;12.10;;;11.00;;
45420;SDS011;55462;47.042;8.292;2024-03-07T03:17:51;12.33;;;11.13;;
45420;SDS011;55462;47.042;8.292;2024-03-07T03:20:17;13.50;;;12.00;;
45420;SDS011;55462;47.042;8.292;2024-03-07T03:23:03;13.90;;;12.60;;
45420;SDS011;55462;47.042;8.292;2024-03-07T03:25:29;13.70;;;12.40;;
45420;SDS011;55462;47.042;8.292;2024-03-07T03:27:55;14.30;;;12.90;;
45420;SDS011;55462;47.042;8.292;2024-03-07T03:30:20;14.73;;;13.23;;
45420;SDS011;55462;47.042;8.292;2024-03-07T03:32:46;16.47;;;14.77;;
45420;SDS011;55462;47.042;8.292;2024-03-07T03:35:12;15.73;;;14.15;;
45420;SDS011;55462;47.042;8.292;2024-03-07T03:37:42;16.37;;;14.60;;
45420;SDS011;55462;47.042;8.292;2024-03-07T03:40:09;15.53;;;13.93;;
45420;SDS011;55462;47.042;8.292;2024-03-07T03:42:35;15.13;;;13.50;;
45420;SDS011;55462;47.042;8.292;2024-03-07T03:45:05;15.37;;;13.87;;
45420;SDS011;55462;47.042;8.292;2024-03-07T03:47:37;16.43;;;14.20;;
45420;SDS011;55462;47.042;8.292;2024-03-07T03:50:03;16.50;;;14.77;;
45420;SDS011;55462;47.042;8.292;2024-03-07T03:52:30;15.90;;;14.30;;
45420;SDS011;55462;47.042;8.292;2024-03-07T03:54:55;15.87;;;14.17;;
45420;SDS011;55462;47.042;8.292;2024-03-07T03:57:21;15.87;;;14.17;;
45420;SDS011;55462;47.042;8.292;2024-03-07T03:59:47;16.43;;;14.63;;
45420;SDS011;55462;47.042;8.292;2024-03-07T04:02:13;16.57;;;14.10;;
45420;SDS011;55462;47.042;8.292;2024-03-07T04:04:38;16.77;;;14.87;;
45420;SDS011;55462;47.042;8.292;2024-03-07T04:07:04;17.47;;;14.83;;
45420;SDS011;55462;47.042;8.292;2024-03-07T04:09:30;14.27;;;12.87;;
45420;SDS011;55462;47.042;8.292;2024-03-07T04:11:56;14.07;;;12.67;;
45420;SDS011;55462;47.042;8.292;2024-03-07T04:14:22;13.23;;;11.93;;
45420;SDS011;55462;47.042;8.292;2024-03-07T04:16:47;13.97;;;12.57;;
45420;SDS011;55462;47.042;8.292;2024-03-07T04:19:12;14.93;;;13.37;;
45420;SDS011;55462;47.042;8.292;2024-03-07T04:21:38;14.43;;;12.80;;
45420;SDS011;55462;47.042;8.292;2024-03-07T04:24:04;14.73;;;13.13;;
45420;SDS011;55462;47.042;8.292;2024-03-07T04:26:30;13.93;;;12.53;;
45420;SDS011;55462;47.042;8.292;2024-03-07T04:28:55;14.60;;;13.10;;
45420;SDS011;55462;47.042;8.292;2024-03-07T04:31:21;13.87;;;12.37;;
45420;SDS011;55462;47.042;8.292;2024-03-07T04:33:46;14.33;;;12.83;;
45420;SDS011;55462;47.042;8.292;2024-03-07T04:36:12;13.77;;;12.37;;
45420;SDS011;55462;47.042;8.292;2024-03-07T04:38:37;15.33;;;13.53;;
45420;SDS011;55462;47.042;8.292;2024-03-07T04:41:03;13.40;;;12.00;;
45420;SDS011;55462;47.042;8.292;2024-03-07T04:43:28;14.27;;;12.87;;
45420;SDS011;55462;47.042;8.292;2024-03-07T04:45:54;14.20;;;12.90;;
45420;SDS011;55462;47.042;8.292;2024-03-07T04:48:20;16.20;;;14.57;;
45420;SDS011;55462;47.042;8.292;2024-03-07T04:50:46;15.53;;;14.03;;
45420;SDS011;55462;47.042;8.292;2024-03-07T04:53:11;15.20;;;13.60;;
45420;SDS011;55462;47.042;8.292;2024-03-07T04:55:36;15.50;;;13.90;;
45420;SDS011;55462;47.042;8.292;2024-03-07T04:58:02;15.90;;;14.10;;
45420;SDS011;55462;47.042;8.292;2024-03-07T05:00:27;14.67;;;13.27;;
45420;SDS011;55462;47.042;8.292;2024-03-07T05:02:54;14.70;;;13.27;;
45420;SDS011;55462;47.042;8.292;2024-03-07T05:05:19;14.13;;;12.73;;
45420;SDS011;55462;47.042;8.292;2024-03-07T05:07:50;13.47;;;12.17;;
45420;SDS011;55462;47.042;8.292;2024-03-07T05:10:16;14.27;;;12.87;;
45420;SDS011;55462;47.042;8.292;2024-03-07T05:12:41;14.60;;;13.27;;
45420;SDS011;55462;47.042;8.292;2024-03-07T05:15:07;13.50;;;12.17;;
45420;SDS011;55462;47.042;8.292;2024-03-07T05:17:34;13.77;;;12.40;;
45420;SDS011;55462;47.042;8.292;2024-03-07T05:20:02;14.07;;;12.77;;
45420;SDS011;55462;47.042;8.292;2024-03-07T05:22:34;15.07;;;13.53;;
45420;SDS011;55462;47.042;8.292;2024-03-07T05:24:59;13.30;;;12.00;;
45420;SDS011;55462;47.042;8.292;2024-03-07T05:27:24;12.83;;;11.63;;
45420;SDS011;55462;47.042;8.292;2024-03-07T05:29:50;12.73;;;11.53;;
45420;SDS011;55462;47.042;8.292;2024-03-07T05:34:50;13.37;;;11.97;;
45420;SDS011;55462;47.042;8.292;2024-03-07T05:37:16;14.02;;;12.63;;
45420;SDS011;55462;47.042;8.292;2024-03-07T05:39:42;13.43;;;12.13;;
45420;SDS011;55462;47.042;8.292;2024-03-07T05:42:07;12.33;;;11.13;;
45420;SDS011;55462;47.042;8.292;2024-03-07T05:44:32;13.67;;;12.27;;
45420;SDS011;55462;47.042;8.292;2024-03-07T05:46:58;13.20;;;11.90;;
45420;SDS011;55462;47.042;8.292;2024-03-07T05:49:23;13.87;;;12.40;;
45420;SDS011;55462;47.042;8.292;2024-03-07T05:51:49;13.03;;;11.73;;
45420;SDS011;55462;47.042;8.292;2024-03-07T05:54:14;12.43;;;11.27;;
45420;SDS011;55462;47.042;8.292;2024-03-07T05:56:40;12.63;;;11.33;;
45420;SDS011;55462;47.042;8.292;2024-03-07T05:59:06;12.97;;;11.77;;
45420;SDS011;55462;47.042;8.292;2024-03-07T06:01:37;13.50;;;12.20;;
45420;SDS011;55462;47.042;8.292;2024-03-07T06:04:04;11.33;;;10.23;;
45420;SDS011;55462;47.042;8.292;2024-03-07T06:06:36;12.03;;;10.80;;
45420;SDS011;55462;47.042;8.292;2024-03-07T06:09:07;12.23;;;11.03;;
45420;SDS011;55462;47.042;8.292;2024-03-07T06:11:37;11.63;;;10.53;;
45420;SDS011;55462;47.042;8.292;2024-03-07T06:14:03;11.73;;;10.63;;
45420;SDS011;55462;47.042;8.292;2024-03-07T06:16:38;12.03;;;10.83;;
45420;SDS011;55462;47.042;8.292;2024-03-07T06:19:04;11.33;;;10.23;;
45420;SDS011;55462;47.042;8.292;2024-03-07T06:21:33;11.70;;;10.50;;
45420;SDS011;55462;47.042;8.292;2024-03-07T06:24:00;12.90;;;10.70;;
45420;SDS011;55462;47.042;8.292;2024-03-07T06:26:29;11.80;;;10.60;;
45420;SDS011;55462;47.042;8.292;2024-03-07T06:29:14;11.67;;;10.57;;
45420;SDS011;55462;47.042;8.292;2024-03-07T06:31:44;10.17;;;9.17;;
45420;SDS011;55462;47.042;8.292;2024-03-07T06:34:12;9.87;;;8.87;;
45420;SDS011;55462;47.042;8.292;2024-03-07T06:36:38;11.10;;;10.10;;
45420;SDS011;55462;47.042;8.292;2024-03-07T06:39:03;9.80;;;8.90;;
45420;SDS011;55462;47.042;8.292;2024-03-07T06:41:32;11.10;;;10.00;;
45420;SDS011;55462;47.042;8.292;2024-03-07T06:43:58;10.53;;;9.53;;
45420;SDS011;55462;47.042;8.292;2024-03-07T06:46:23;10.87;;;9.77;;
45420;SDS011;55462;47.042;8.292;2024-03-07T06:48:49;14.70;;;9.97;;
45420;SDS011;55462;47.042;8.292;2024-03-07T06:51:16;10.67;;;9.67;;
45420;SDS011;55462;47.042;8.292;2024-03-07T06:53:42;10.10;;;9.10;;
45420;SDS011;55462;47.042;8.292;2024-03-07T06:56:08;9.23;;;8.43;;
45420;SDS011;55462;47.042;8.292;2024-03-07T06:58:33;9.83;;;8.93;;
45420;SDS011;55462;47.042;8.292;2024-03-07T07:00:58;8.83;;;8.03;;
45420;SDS011;55462;47.042;8.292;2024-03-07T07:03:25;8.50;;;7.70;;
45420;SDS011;55462;47.042;8.292;2024-03-07T07:05:53;8.60;;;7.80;;
45420;SDS011;55462;47.042;8.292;2024-03-07T07:08:19;9.30;;;8.40;;
45420;SDS011;55462;47.042;8.292;2024-03-07T07:10:44;8.67;;;7.87;;
45420;SDS011;55462;47.042;8.292;2024-03-07T07:13:10;8.30;;;7.55;;
45420;SDS011;55462;47.042;8.292;2024-03-07T07:15:35;8.70;;;7.90;;
45420;SDS011;55462;47.042;8.292;2024-03-07T07:18:01;7.97;;;7.20;;
45420;SDS011;55462;47.042;8.292;2024-03-07T07:20:27;8.27;;;7.47;;
45420;SDS011;55462;47.042;8.292;2024-03-07T07:22:53;7.67;;;6.97;;
45420;SDS011;55462;47.042;8.292;2024-03-07T07:25:18;8.18;;;7.38;;
45420;SDS011;55462;47.042;8.292;2024-03-07T07:27:51;8.37;;;7.60;;
45420;SDS011;55462;47.042;8.292;2024-03-07T07:30:18;7.88;;;7.18;;
45420;SDS011;55462;47.042;8.292;2024-03-07T07:32:45;7.87;;;7.17;;
45420;SDS011;55462;47.042;8.292;2024-03-07T07:35:10;8.03;;;7.27;;
45420;SDS011;55462;47.042;8.292;2024-03-07T07:37:40;7.70;;;7.10;;
45420;SDS011;55462;47.042;8.292;2024-03-07T07:40:08;7.73;;;7.03;;
45420;SDS011;55462;47.042;8.292;2024-03-07T07:42:39;8.03;;;7.33;;
45420;SDS011;55462;47.042;8.292;2024-03-07T07:45:05;7.47;;;6.87;;
45420;SDS011;55462;47.042;8.292;2024-03-07T07:47:31;7.30;;;6.60;;
45420;SDS011;55462;47.042;8.292;2024-03-07T07:49:57;7.10;;;6.50;;
45420;SDS011;55462;47.042;8.292;2024-03-07T07:52:23;7.77;;;7.10;;
45420;SDS011;55462;47.042;8.292;2024-03-07T07:54:48;8.00;;;7.20;;
45420;SDS011;55462;47.042;8.292;2024-03-07T07:57:13;8.00;;;7.30;;
45420;SDS011;55462;47.042;8.292;2024-03-07T07:59:38;7.80;;;7.10;;
45420;SDS011;55462;47.042;8.292;2024-03-07T08:02:05;7.13;;;6.53;;
45420;SDS011;55462;47.042;8.292;2024-03-07T08:04:31;7.17;;;6.57;;
45420;SDS011;55462;47.042;8.292;2024-03-07T08:06:57;8.63;;;7.83;;
45420;SDS011;55462;47.042;8.292;2024-03-07T08:09:22;7.97;;;7.27;;
45420;SDS011;55462;47.042;8.292;2024-03-07T08:11:48;8.03;;;7.20;;
45420;SDS011;55462;47.042;8.292;2024-03-07T08:14:15;7.67;;;6.97;;
45420;SDS011;55462;47.042;8.292;2024-03-07T08:16:40;8.30;;;7.60;;
45420;SDS011;55462;47.042;8.292;2024-03-07T08:19:05;7.43;;;6.77;;
45420;SDS011;55462;47.042;8.292;2024-03-07T08:21:31;8.20;;;7.50;;
45420;SDS011;55462;47.042;8.292;2024-03-07T08:23:57;8.23;;;7.43;;
45420;SDS011;55462;47.042;8.292;2024-03-07T08:26:23;7.03;;;6.43;;
45420;SDS011;55462;47.042;8.292;2024-03-07T08:28:48;7.27;;;6.67;;
45420;SDS011;55462;47.042;8.292;2024-03-07T08:31:13;7.63;;;6.93;;
45420;SDS011;55462;47.042;8.292;2024-03-07T08:33:39;6.87;;;6.17;;
45420;SDS011;55462;47.042;8.292;2024-03-07T08:36:04;8.07;;;7.37;;
45420;SDS011;55462;47.042;8.292;2024-03-07T08:38:32;7.83;;;7.13;;
45420;SDS011;55462;47.042;8.292;2024-03-07T08:40:58;7.17;;;6.57;;
45420;SDS011;55462;47.042;8.292;2024-03-07T08:43:23;10.20;;;6.50;;
45420;SDS011;55462;47.042;8.292;2024-03-07T08:45:49;6.85;;;6.30;;
45420;SDS011;55462;47.042;8.292;2024-03-07T08:48:14;6.93;;;6.17;;
45420;SDS011;55462;47.042;8.292;2024-03-07T08:50:39;6.30;;;5.80;;
45420;SDS011;55462;47.042;8.292;2024-03-07T08:53:05;5.63;;;5.13;;
45420;SDS011;55462;47.042;8.292;2024-03-07T08:55:30;6.30;;;5.80;;
45420;SDS011;55462;47.042;8.292;2024-03-07T08:57:56;6.10;;;5.60;;
45420;SDS011;55462;47.042;8.292;2024-03-07T09:00:21;5.87;;;5.30;;
45420;SDS011;55462;47.042;8.292;2024-03-07T09:03:05;6.85;;;6.15;;
45420;SDS011;55462;47.042;8.292;2024-03-07T09:05:34;7.60;;;6.23;;
45420;SDS011;55462;47.042;8.292;2024-03-07T09:07:59;6.30;;;5.73;;
45420;SDS011;55462;47.042;8.292;2024-03-07T09:10:25;6.00;;;5.50;;
45420;SDS011;55462;47.042;8.292;2024-03-07T09:12:51;6.70;;;5.43;;
45420;SDS011;55462;47.042;8.292;2024-03-07T09:15:17;5.35;;;4.93;;
45420;SDS011;55462;47.042;8.292;2024-03-07T09:17:44;5.85;;;5.35;;
45420;SDS011;55462;47.042;8.292;2024-03-07T09:20:09;6.07;;;5.63;;
45420;SDS011;55462;47.042;8.292;2024-03-07T09:22:39;6.03;;;5.53;;
45420;SDS011;55462;47.042;8.292;2024-03-07T09:25:05;6.73;;;6.13;;
45420;SDS011;55462;47.042;8.292;2024-03-07T09:27:31;7.23;;;6.63;;
45420;SDS011;55462;47.042;8.292;2024-03-07T09:29:56;6.43;;;5.93;;
45420;SDS011;55462;47.042;8.292;2024-03-07T09:32:22;6.85;;;6.25;;
45420;SDS011;55462;47.042;8.292;2024-03-07T09:34:49;6.55;;;5.95;;
45420;SDS011;55462;47.042;8.292;2024-03-07T09:37:14;6.55;;;6.00;;
45420;SDS011;55462;47.042;8.292;2024-03-07T09:39:40;6.00;;;5.50;;
45420;SDS011;55462;47.042;8.292;2024-03-07T09:42:07;6.82;;;6.22;;
45420;SDS011;55462;47.042;8.292;2024-03-07T09:44:38;7.28;;;6.68;;
45420;SDS011;55462;47.042;8.292;2024-03-07T09:47:05;6.55;;;5.95;;
45420;SDS011;55462;47.042;8.292;2024-03-07T09:49:32;7.18;;;6.57;;
45420;SDS011;55462;47.042;8.292;2024-03-07T09:51:59;7.70;;;7.00;;
45420;SDS011;55462;47.042;8.292;2024-03-07T09:54:25;6.88;;;6.28;;
45420;SDS011;55462;47.042;8.292;2024-03-07T09:56:54;12.95;;;7.30;;
45420;SDS011;55462;47.042;8.292;2024-03-07T09:59:20;7.60;;;6.90;;
45420;SDS011;55462;47.042;8.292;2024-03-07T10:01:48;7.97;;;7.28;;
45420;SDS011;55462;47.042;8.292;2024-03-07T10:04:16;7.50;;;6.80;;
45420;SDS011;55462;47.042;8.292;2024-03-07T10:06:45;7.18;;;6.57;;
45420;SDS011;55462;47.042;8.292;2024-03-07T10:09:10;7.57;;;6.55;;
45420;SDS011;55462;47.042;8.292;2024-03-07T10:11:38;7.60;;;7.00;;
45420;SDS011;55462;47.042;8.292;2024-03-07T10:14:04;8.15;;;7.30;;
45420;SDS011;55462;47.042;8.292;2024-03-07T10:16:29;6.90;;;6.30;;
45420;SDS011;55462;47.042;8.292;2024-03-07T10:18:56;6.93;;;6.32;;
45420;SDS011;55462;47.042;8.292;2024-03-07T10:21:27;7.13;;;6.53;;
45420;SDS011;55462;47.042;8.292;2024-03-07T10:24:08;6.70;;;5.93;;
45420;SDS011;55462;47.042;8.292;2024-03-07T10:26:36;6.78;;;6.13;;
45420;SDS011;55462;47.042;8.292;2024-03-07T10:29:02;6.15;;;5.65;;
45420;SDS011;55462;47.042;8.292;2024-03-07T10:31:32;6.05;;;5.55;;
45420;SDS011;55462;47.042;8.292;2024-03-07T10:34:01;7.03;;;6.43;;
45420;SDS011;55462;47.042;8.292;2024-03-07T10:36:30;6.97;;;6.38;;
45420;SDS011;55462;47.042;8.292;2024-03-07T10:38:57;5.95;;;5.45;;
45420;SDS011;55462;47.042;8.292;2024-03-07T10:41:46;5.80;;;5.30;;
45420;SDS011;55462;47.042;8.292;2024-03-07T10:44:18;5.60;;;5.10;;
45420;SDS011;55462;47.042;8.292;2024-03-07T10:46:44;6.13;;;5.53;;
45420;SDS011;55462;47.042;8.292;2024-03-07T10:49:12;5.82;;;5.32;;
45420;SDS011;55462;47.042;8.292;2024-03-07T10:51:40;6.47;;;5.88;;
45420;SDS011;55462;47.042;8.292;2024-03-07T10:59:30;5.90;;;5.40;;
45420;SDS011;55462;47.042;8.292;2024-03-07T11:04:41;5.22;;;4.80;;
45420;SDS011;55462;47.042;8.292;2024-03-07T11:07:08;5.47;;;4.97;;
45420;SDS011;55462;47.042;8.292;2024-03-07T11:09:35;5.53;;;5.03;;
45420;SDS011;55462;47.042;8.292;2024-03-07T11:12:01;5.30;;;4.90;;
45420;SDS011;55462;47.042;8.292;2024-03-07T11:14:31;5.10;;;4.68;;
45420;SDS011;55462;47.042;8.292;2024-03-07T11:16:57;5.78;;;5.25;;
45420;SDS011;55462;47.042;8.292;2024-03-07T11:19:26;7.00;;;6.30;;
45420;SDS011;55462;47.042;8.292;2024-03-07T11:21:56;5.70;;;5.20;;
45420;SDS011;55462;47.042;8.292;2024-03-07T11:24:22;6.15;;;5.65;;
45420;SDS011;55462;47.042;8.292;2024-03-07T11:26:53;6.03;;;5.43;;
45420;SDS011;55462;47.042;8.292;2024-03-07T11:32:12;7.45;;;6.75;;
45420;SDS011;55462;47.042;8.292;2024-03-07T11:34:39;8.05;;;7.25;;
45420;SDS011;55462;47.042;8.292;2024-03-07T11:37:06;9.45;;;8.60;;
45420;SDS011;55462;47.042;8.292;2024-03-07T11:39:46;7.70;;;7.07;;
45420;SDS011;55462;47.042;8.292;2024-03-07T11:42:19;8.38;;;7.68;;
45420;SDS011;55462;47.042;8.292;2024-03-07T11:44:44;8.90;;;7.20;;
45420;SDS011;55462;47.042;8.292;2024-03-07T11:47:11;7.55;;;6.85;;
45420;SDS011;55462;47.042;8.292;2024-03-07T11:49:37;7.65;;;6.75;;
45420;SDS011;55462;47.042;8.292;2024-03-07T11:52:03;8.32;;;7.63;;
45420;SDS011;55462;47.042;8.292;2024-03-07T11:54:36;9.32;;;7.65;;
45420;SDS011;55462;47.042;8.292;2024-03-07T11:57:02;8.68;;;7.82;;
45420;SDS011;55462;47.042;8.292;2024-03-07T11:59:37;8.32;;;7.63;;
45420;SDS011;55462;47.042;8.292;2024-03-07T12:02:04;7.78;;;7.07;;
45420;SDS011;55462;47.042;8.292;2024-03-07T12:04:29;7.80;;;7.18;;
45420;SDS011;55462;47.042;8.292;2024-03-07T12:06:55;7.45;;;6.75;;
45420;SDS011;55462;47.042;8.292;2024-03-07T12:09:21;6.68;;;6.13;;
45420;SDS011;55462;47.042;8.292;2024-03-07T12:11:49;7.43;;;6.82;;
45420;SDS011;55462;47.042;8.292;2024-03-07T12:14:18;6.80;;;6.20;;
45420;SDS011;55462;47.042;8.292;2024-03-07T12:16:46;7.30;;;6.63;;
45420;SDS011;55462;47.042;8.292;2024-03-07T12:19:12;7.32;;;6.63;;
45420;SDS011;55462;47.042;8.292;2024-03-07T12:21:37;7.88;;;7.18;;
45420;SDS011;55462;47.042;8.292;2024-03-07T12:24:13;6.88;;;6.28;;
45420;SDS011;55462;47.042;8.292;2024-03-07T12:26:40;6.57;;;6.03;;
45420;SDS011;55462;47.042;8.292;2024-03-07T12:29:09;7.07;;;6.47;;
45420;SDS011;55462;47.042;8.292;2024-03-07T12:31:37;6.07;;;5.57;;
45420;SDS011;55462;47.042;8.292;2024-03-07T12:34:02;5.97;;;5.38;;
45420;SDS011;55462;47.042;8.292;2024-03-07T12:36:29;6.50;;;6.00;;
45420;SDS011;55462;47.042;8.292;2024-03-07T12:38:59;6.25;;;5.75;;
45420;SDS011;55462;47.042;8.292;2024-03-07T12:41:34;5.75;;;5.25;;
45420;SDS011;55462;47.042;8.292;2024-03-07T12:44:00;5.95;;;5.45;;
45420;SDS011;55462;47.042;8.292;2024-03-07T12:46:25;5.32;;;4.82;;
45420;SDS011;55462;47.042;8.292;2024-03-07T12:48:52;4.55;;;4.15;;
45420;SDS011;55462;47.042;8.292;2024-03-07T12:51:22;4.50;;;4.10;;
45420;SDS011;55462;47.042;8.292;2024-03-07T12:53:47;5.07;;;4.68;;
45420;SDS011;55462;47.042;8.292;2024-03-07T12:56:13;4.93;;;4.53;;
45420;SDS011;55462;47.042;8.292;2024-03-07T12:58:43;5.55;;;5.05;;
45420;SDS011;55462;47.042;8.292;2024-03-07T13:01:09;5.00;;;4.60;;
45420;SDS011;55462;47.042;8.292;2024-03-07T13:03:36;5.03;;;4.63;;
45420;SDS011;55462;47.042;8.292;2024-03-07T13:06:01;5.82;;;5.32;;
45420;SDS011;55462;47.042;8.292;2024-03-07T13:08:27;4.95;;;4.65;;
45420;SDS011;55462;47.042;8.292;2024-03-07T13:10:54;5.55;;;5.15;;
45420;SDS011;55462;47.042;8.292;2024-03-07T13:13:20;6.60;;;6.10;;
45420;SDS011;55462;47.042;8.292;2024-03-07T13:15:46;5.70;;;5.20;;
45420;SDS011;55462;47.042;8.292;2024-03-07T13:18:12;5.90;;;5.38;;
45420;SDS011;55462;47.042;8.292;2024-03-07T13:20:38;6.30;;;5.72;;
45420;SDS011;55462;47.042;8.292;2024-03-07T13:23:04;6.07;;;5.57;;
45420;SDS011;55462;47.042;8.292;2024-03-07T13:25:30;6.15;;;5.55;;
45420;SDS011;55462;47.042;8.292;2024-03-07T13:28:14;6.10;;;5.60;;
45420;SDS011;55462;47.042;8.292;2024-03-07T13:30:42;5.70;;;5.20;;
45420;SDS011;55462;47.042;8.292;2024-03-07T13:33:08;5.88;;;5.32;;
45420;SDS011;55462;47.042;8.292;2024-03-07T13:35:35;5.47;;;4.97;;
45420;SDS011;55462;47.042;8.292;2024-03-07T13:38:03;6.03;;;5.43;;
45420;SDS011;55462;47.042;8.292;2024-03-07T13:40:28;5.50;;;5.05;;
45420;SDS011;55462;47.042;8.292;2024-03-07T13:42:59;4.85;;;4.45;;
45420;SDS011;55462;47.042;8.292;2024-03-07T13:45:28;5.78;;;4.93;;
45420;SDS011;55462;47.042;8.292;2024-03-07T13:47:57;4.95;;;4.55;;
45420;SDS011;55462;47.042;8.292;2024-03-07T13:50:24;5.75;;;5.18;;
45420;SDS011;55462;47.042;8.292;2024-03-07T13:52:53;6.00;;;5.50;;
45420;SDS011;55462;47.042;8.292;2024-03-07T14:01:09;6.47;;;5.63;;
45420;SDS011;55462;47.042;8.292;2024-03-07T14:19:57;7.82;;;5.68;;
45420;SDS011;55462;47.042;8.292;2024-03-07T14:25:41;4.75;;;4.35;;
45420;SDS011;55462;47.042;8.292;2024-03-07T14:30:56;4.63;;;4.32;;
45420;SDS011;55462;47.042;8.292;2024-03-07T14:36:50;4.18;;;3.78;;
45420;SDS011;55462;47.042;8.292;2024-03-07T14:39:18;5.05;;;4.65;;
45420;SDS011;55462;47.042;8.292;2024-03-07T14:42:04;4.80;;;4.50;;
45420;SDS011;55462;47.042;8.292;2024-03-07T14:44:35;4.70;;;4.30;;
45420;SDS011;55462;47.042;8.292;2024-03-07T14:47:03;5.50;;;4.50;;
45420;SDS011;55462;47.042;8.292;2024-03-07T14:49:32;4.50;;;4.10;;
45420;SDS011;55462;47.042;8.292;2024-03-07T14:51:58;4.25;;;3.95;;
45420;SDS011;55462;47.042;8.292;2024-03-07T14:54:24;4.22;;;3.92;;
45420;SDS011;55462;47.042;8.292;2024-03-07T14:56:49;4.22;;;3.83;;
45420;SDS011;55462;47.042;8.292;2024-03-07T14:59:14;4.35;;;4.05;;
45420;SDS011;55462;47.042;8.292;2024-03-07T15:01:40;6.65;;;4.60;;
45420;SDS011;55462;47.042;8.292;2024-03-07T15:04:06;4.90;;;4.40;;
45420;SDS011;55462;47.042;8.292;2024-03-07T15:06:33;4.30;;;4.00;;
45420;SDS011;55462;47.042;8.292;2024-03-07T15:08:59;4.28;;;3.95;;
45420;SDS011;55462;47.042;8.292;2024-03-07T15:11:34;4.85;;;4.45;;
45420;SDS011;55462;47.042;8.292;2024-03-07T15:14:00;4.28;;;3.97;;
45420;SDS011;55462;47.042;8.292;2024-03-07T15:16:26;4.10;;;3.80;;
45420;SDS011;55462;47.042;8.292;2024-03-07T15:18:53;4.28;;;3.95;;
45420;SDS011;55462;47.042;8.292;2024-03-07T15:21:19;4.60;;;3.55;;